Bristol, NH (03222)

7:53 AM EST on February 10, 2016 (GMT -0500)
Bristol Village | | Change Station
CLOSE
Current Station
Personal Weather Station
Location: Bristol, NH
Elevation: 515 ft
Nearby Weather Stations

Elev 515 ft 43.59 °N, 71.74 °W | Updated 13 seconds ago

Overcast
Overcast
22.3 °F
Feels Like 22 °F
N
1.0
Wind Variable Wind from West
Gusts 2.0 mph

Today
High -- | Low -- °F
--% Chance of Precip.
Yesterday
High -- | Low -- °F
Precip. -- in
Pressure 29.57 in
Visibility 4.0 miles
Clouds Scattered Clouds 1500 ft
Mostly Cloudy 2900 ft
Overcast 4600 ft
Windchill 22 °F
Dew Point 18 °F
Humidity 82%
Rainfall 0.00 in
Snow Depth Not available.
6:53 AM 5:09 PM
Waxing Crescent, 5% visible
METAR K1P1 101235Z AUTO 00000KT 4SM -SN SCT015 BKN029 OVC046 M06/M07 A2957 RMK AO2 T10631070
Pressure 29.57 in
Visibility 4.0 miles
Clouds Scattered Clouds 1500 ft
Mostly Cloudy 2900 ft
Overcast 4600 ft
Windchill 22 °F
Dew Point 18 °F
Humidity 82%
Rainfall 0.00 in
Snow Depth Not available.
6:53 AM 5:09 PM
Waxing Crescent, 5% visible
METAR K1P1 101235Z AUTO 00000KT 4SM -SN SCT015 BKN029 OVC046 M06/M07 A2957 RMK AO2 T10631070

10-Day Weather Forecast

Almanac

Astronomy

Feb. 10, 2016 Rise Set
Actual Time
Civil Twilight
Nautical Twilight
Astronomical Twilight
Moon
Length of Visible Light
Length of Day
Tomorrow will be .
, % of the Moon is Illuminated

Today's Extremes

State Highs State Lows

Community

WunderPhotos

Upload Photos

1,891,837 photos uploaded!

WunderBlog® & News

Nearby

Air Quality

  Air Quality AQ Index Pollutant
Not available.

Snow Depth

Station Depth Elevation

Earthquake Activity

City Distance Mag. Time & Date
Minimum magnitude displayed is 2.5.

Coastal Water Temperatures

Place Temperature

Stations

Nearby Weather Stations

Station Location Temp. Windchill Dew Point Humidity Wind Precip. Elev Updated Type
                   

Watches & Warnings

There are currently no watches in effect.